Time;durP1;ratioP1;P1;durP2;ratioP2;P2;SDS_P1;SDS_P2;PMS_P1;PMS_P2;Temp;Humidity;BMP_temperature;BMP_pressure;BME280_temperature;BME280_humidity;BME280_pressure;Samples;Min_cycle;Max_cycle;Signal;HPM_P1;HPM_P2
2024/02/24 00:01:54;;;;;;;;;;;4.10;84.40;;;;;;5056342;28;19925;-57
2024/02/24 00:04:28;;;;;;;;;;;4.10;84.60;;;;;;5049775;28;19966;-58
2024/02/24 00:07:03;;;;;;;;;;;4.00;84.80;;;;;;5058468;28;19929;-58
2024/02/24 00:09:36;;;;;;;;;;;3.90;84.80;;;;;;5043620;28;19925;-58
2024/02/24 00:12:09;;;;;;;;;;;3.80;84.80;;;;;;5066328;28;19928;-58
2024/02/24 00:14:43;;;;;;;;;;;3.70;84.80;;;;;;5062638;28;19925;-57
2024/02/24 00:17:17;;;;;;;;;;;3.70;84.90;;;;;;5054869;28;19929;-58
2024/02/24 00:19:50;;;;;;;;;;;3.70;84.90;;;;;;5053064;28;19937;-58
2024/02/24 00:22:25;;;;;;;;;;;3.70;84.90;;;;;;5067104;28;19932;-58
2024/02/24 00:24:58;;;;;;;;;;;3.70;85.00;;;;;;5060458;28;20394;-58
2024/02/24 00:27:31;;;;;;;;;;;3.70;85.20;;;;;;5049145;28;20008;-57
2024/02/24 00:30:05;;;;;;;;;;;3.70;85.50;;;;;;5047744;28;19956;-56
2024/02/24 00:32:32;;;;;;;;;;;3.80;85.20;;;;;;5047412;28;19936;-57
2024/02/24 00:35:06;;;;;;;;;;;3.90;85.00;;;;;;5044478;28;20376;-56
2024/02/24 00:37:41;;;;;;;;;;;3.90;85.20;;;;;;5047156;28;19961;-56
2024/02/24 00:40:15;;;;;;;;;;;3.80;85.30;;;;;;5046658;28;19925;-59
2024/02/24 00:42:47;;;;;;;;;;;3.90;85.30;;;;;;5048497;28;19979;-57
2024/02/24 00:45:21;;;;;;;;;;;3.90;85.40;;;;;;5048267;28;19932;-58
2024/02/24 00:47:54;;;;;;;;;;;3.90;85.20;;;;;;5041013;28;20072;-58
2024/02/24 00:50:28;;;;;;;;;;;3.90;85.30;;;;;;5053303;28;20015;-58
2024/02/24 00:53:03;;;;;;;;;;;3.80;85.10;;;;;;5067589;28;19960;-58
2024/02/24 00:55:36;;;;;;;;;;;3.80;85.10;;;;;;5061290;28;19947;-76
2024/02/24 00:58:09;;;;;;;;;;;3.70;85.40;;;;;;5058005;28;19925;-78
2024/02/24 01:00:42;;;;;;;;;;;3.70;85.80;;;;;;5047995;28;19935;-76
2024/02/24 01:03:15;;;;;;;;;;;3.70;85.80;;;;;;5047442;28;19935;-78
2024/02/24 01:05:48;;;;;;;;;;;3.70;86.00;;;;;;5040499;28;20312;-76
2024/02/24 01:08:23;;;;;;;;;;;3.70;86.10;;;;;;5044501;28;19924;-76
2024/02/24 01:10:58;;;;;;;;;;;3.70;86.00;;;;;;5049223;28;19925;-77
2024/02/24 01:13:30;;;;;;;;;;;3.70;85.90;;;;;;5048524;28;19932;-76
2024/02/24 01:16:04;;;;;;;;;;;3.70;86.00;;;;;;5046951;28;20467;-77
2024/02/24 01:18:37;;;;;;;;;;;3.70;85.80;;;;;;5050340;28;20019;-74
2024/02/24 01:21:11;;;;;;;;;;;3.60;85.70;;;;;;5050450;28;19929;-76
2024/02/24 01:23:46;;;;;;;;;;;3.60;85.60;;;;;;5048443;28;19925;-76
2024/02/24 01:26:19;;;;;;;;;;;3.60;85.70;;;;;;5056431;28;20090;-77
2024/02/24 01:28:52;;;;;;;;;;;3.50;85.60;;;;;;5053570;28;19948;-76
2024/02/24 01:31:25;;;;;;;;;;;3.40;85.70;;;;;;5054672;28;19935;-76
2024/02/24 01:33:58;;;;;;;;;;;3.40;85.60;;;;;;5046859;28;19986;-76
2024/02/24 01:36:31;;;;;;;;;;;3.50;85.80;;;;;;5044675;28;19933;-74
2024/02/24 01:39:06;;;;;;;;;;;3.50;85.60;;;;;;5045705;28;19955;-76
2024/02/24 01:41:39;;;;;;;;;;;3.50;85.50;;;;;;5043643;28;19967;-77
2024/02/24 01:44:18;;;;;;;;;;;3.40;85.40;;;;;;5045643;28;19939;-75
2024/02/24 01:46:51;;;;;;;;;;;3.30;85.60;;;;;;5042720;28;19947;-75
2024/02/24 01:49:24;;;;;;;;;;;3.30;85.70;;;;;;5042194;28;19945;-75
2024/02/24 01:51:56;;;;;;;;;;;3.20;85.70;;;;;;5041440;28;20430;-76
2024/02/24 01:54:31;;;;;;;;;;;3.20;85.70;;;;;;5040738;28;19925;-76
2024/02/24 01:57:05;;;;;;;;;;;3.20;85.70;;;;;;5046280;28;19928;-75
2024/02/24 02:10:25;;;;;;;;;;;3.00;85.70;;;;;;5044663;28;19943;-61
2024/02/24 02:12:58;;;;;;;;;;;3.00;85.70;;;;;;5043030;28;19929;-61
2024/02/24 02:15:31;;;;;;;;;;;3.00;85.50;;;;;;5039272;28;19955;-61
2024/02/24 02:18:05;;;;;;;;;;;3.00;85.50;;;;;;5046420;28;20024;-61
2024/02/24 02:20:38;;;;;;;;;;;2.90;85.60;;;;;;5038201;28;19928;-61
2024/02/24 02:23:13;;;;;;;;;;;3.00;85.60;;;;;;5044793;28;19933;-64
2024/02/24 02:25:46;;;;;;;;;;;2.90;85.60;;;;;;5044881;28;19924;-62
2024/02/24 02:28:19;;;;;;;;;;;2.90;85.70;;;;;;5041746;28;19946;-61
2024/02/24 02:30:46;;;;;;;;;;;2.80;85.60;;;;;;5044387;28;19944;-62
2024/02/24 02:33:19;;;;;;;;;;;2.70;85.70;;;;;;5036995;28;19932;-61
2024/02/24 02:35:52;;;;;;;;;;;2.70;85.60;;;;;;5041151;28;20396;-61
2024/02/24 02:38:27;;;;;;;;;;;2.70;85.70;;;;;;5042503;28;19960;-61
2024/02/24 02:40:54;;;;;;;;;;;2.70;85.60;;;;;;5041828;28;19929;-63
2024/02/24 02:43:27;;;;;;;;;;;2.70;85.60;;;;;;5042923;28;20027;-64
2024/02/24 02:45:59;;;;;;;;;;;2.70;85.80;;;;;;5041792;28;20011;-61
2024/02/24 02:48:33;;;;;;;;;;;2.70;86.00;;;;;;5041166;28;19936;-61
2024/02/24 02:51:06;;;;;;;;;;;2.70;86.00;;;;;;5042893;28;20441;-59
2024/02/24 02:53:41;;;;;;;;;;;2.70;86.10;;;;;;5041770;28;19960;-62
2024/02/24 02:56:16;;;;;;;;;;;2.70;86.10;;;;;;5043544;28;19939;-61
2024/02/24 02:58:50;;;;;;;;;;;2.70;86.40;;;;;;5045350;28;20006;-61
2024/02/24 03:01:23;;;;;;;;;;;2.80;86.40;;;;;;5042082;28;19924;-61
2024/02/24 03:03:55;;;;;;;;;;;2.80;86.40;;;;;;5044434;28;19925;-61
2024/02/24 03:06:31;;;;;;;;;;;2.80;86.40;;;;;;5040897;28;19925;-61
2024/02/24 03:09:06;;;;;;;;;;;2.80;86.30;;;;;;5045582;28;19925;-61
2024/02/24 03:11:39;;;;;;;;;;;2.80;86.40;;;;;;5043510;28;20003;-61
2024/02/24 03:14:13;;;;;;;;;;;2.70;86.60;;;;;;5041758;28;20458;-61
2024/02/24 03:16:45;;;;;;;;;;;2.70;86.50;;;;;;5044438;28;19929;-58
2024/02/24 03:19:18;;;;;;;;;;;2.70;86.40;;;;;;5043584;28;19925;-57
2024/02/24 03:21:45;;;;;;;;;;;2.70;86.70;;;;;;5038647;28;19931;-58
2024/02/24 03:24:20;;;;;;;;;;;2.70;86.60;;;;;;5039236;28;19928;-58
2024/02/24 03:26:53;;;;;;;;;;;2.70;86.40;;;;;;5042643;28;19976;-58
2024/02/24 03:29:26;;;;;;;;;;;2.70;86.40;;;;;;5038324;28;19974;-55
2024/02/24 03:32:00;;;;;;;;;;;2.70;86.50;;;;;;5044623;28;19936;-58
2024/02/24 03:34:34;;;;;;;;;;;2.70;86.70;;;;;;5058091;28;20429;-58
2024/02/24 03:37:06;;;;;;;;;;;2.80;86.60;;;;;;5061376;28;19932;-57
2024/02/24 03:39:41;;;;;;;;;;;2.80;86.60;;;;;;5046270;28;20380;-58
2024/02/24 03:42:07;;;;;;;;;;;2.80;86.50;;;;;;5048266;28;20383;-58
2024/02/24 03:44:40;;;;;;;;;;;2.70;86.60;;;;;;5060289;28;19924;-58
2024/02/24 03:47:13;;;;;;;;;;;2.80;86.60;;;;;;5064023;28;19924;-58
2024/02/24 03:49:46;;;;;;;;;;;2.80;86.40;;;;;;5061711;28;20015;-57
2024/02/24 03:52:19;;;;;;;;;;;2.80;86.50;;;;;;5065150;28;19935;-58
2024/02/24 03:54:54;;;;;;;;;;;2.90;86.50;;;;;;5063425;28;20294;-58
2024/02/24 03:57:27;;;;;;;;;;;2.90;86.30;;;;;;5062291;28;19970;-57
2024/02/24 04:00:00;;;;;;;;;;;2.80;86.70;;;;;;5060034;28;19924;-59
2024/02/24 04:02:40;;;;;;;;;;;2.80;86.90;;;;;;5064931;28;20002;-58
2024/02/24 04:05:13;;;;;;;;;;;2.80;87.00;;;;;;5054215;28;19932;-58
2024/02/24 04:07:45;;;;;;;;;;;2.90;87.00;;;;;;5045980;28;19933;-58
2024/02/24 04:10:20;;;;;;;;;;;2.90;87.10;;;;;;5045755;28;19960;-57
2024/02/24 04:12:54;;;;;;;;;;;3.00;87.10;;;;;;5065305;28;19925;-57
2024/02/24 04:15:27;;;;;;;;;;;3.00;87.00;;;;;;5042964;28;19931;-58
2024/02/24 04:18:01;;;;;;;;;;;3.00;87.30;;;;;;5050648;28;19974;-62
2024/02/24 04:20:34;;;;;;;;;;;3.00;87.40;;;;;;5055110;28;19928;-58
2024/02/24 04:23:06;;;;;;;;;;;3.00;87.60;;;;;;5063871;28;20360;-58
2024/02/24 04:25:41;;;;;;;;;;;3.10;87.60;;;;;;5063389;28;20422;-59
2024/02/24 04:28:07;;;;;;;;;;;3.10;87.60;;;;;;5056971;28;19931;-59
2024/02/24 04:30:41;;;;;;;;;;;3.10;87.40;;;;;;5057417;28;19924;-59
2024/02/24 04:33:15;;;;;;;;;;;3.10;87.50;;;;;;5061611;28;20047;-59
2024/02/24 04:35:47;;;;;;;;;;;3.20;87.50;;;;;;5044501;28;19932;-59
2024/02/24 04:38:21;;;;;;;;;;;3.20;87.50;;;;;;5065964;28;20019;-59
2024/02/24 04:40:55;;;;;;;;;;;3.20;87.50;;;;;;5063519;28;19928;-59
2024/02/24 04:43:29;;;;;;;;;;;3.20;87.40;;;;;;5064999;28;19981;-61
2024/02/24 04:46:01;;;;;;;;;;;3.20;87.30;;;;;;5053313;28;19925;-59
2024/02/24 04:48:34;;;;;;;;;;;3.20;87.60;;;;;;5044570;28;19974;-60
2024/02/24 04:51:07;;;;;;;;;;;3.30;87.50;;;;;;5042141;28;19936;-59
2024/02/24 04:53:41;;;;;;;;;;;3.20;87.70;;;;;;5045887;28;19992;-59
2024/02/24 04:56:17;;;;;;;;;;;3.30;87.70;;;;;;5045599;28;20452;-60
2024/02/24 04:58:51;;;;;;;;;;;3.30;87.50;;;;;;5041041;28;20290;-59
2024/02/24 05:01:23;;;;;;;;;;;3.30;87.60;;;;;;5046431;28;19932;-59
2024/02/24 05:04:03;;;;;;;;;;;3.30;87.50;;;;;;5042759;28;19943;-59
2024/02/24 05:06:43;;;;;;;;;;;3.40;87.60;;;;;;5066882;28;20017;-59
2024/02/24 05:09:17;;;;;;;;;;;3.40;87.70;;;;;;5063559;28;20019;-59
2024/02/24 05:11:51;;;;;;;;;;;3.40;87.60;;;;;;5065381;28;19931;-59
2024/02/24 05:14:31;;;;;;;;;;;3.40;87.60;;;;;;5063097;28;19928;-58
2024/02/24 05:17:07;;;;;;;;;;;3.40;87.50;;;;;;5066740;28;19932;-59
2024/02/24 05:19:40;;;;;;;;;;;3.50;87.60;;;;;;5065215;28;19974;-59
2024/02/24 05:22:12;;;;;;;;;;;3.40;87.50;;;;;;5051471;28;19956;-59
2024/02/24 05:24:46;;;;;;;;;;;3.40;87.70;;;;;;5064914;28;19932;-59
2024/02/24 05:27:21;;;;;;;;;;;3.50;87.50;;;;;;5044103;28;19932;-59
2024/02/24 05:29:55;;;;;;;;;;;3.50;87.50;;;;;;5044463;28;20295;-59
2024/02/24 05:32:28;;;;;;;;;;;3.40;87.70;;;;;;5043317;28;19935;-59
2024/02/24 05:35:01;;;;;;;;;;;3.40;87.90;;;;;;5046381;28;19929;-65
2024/02/24 05:37:34;;;;;;;;;;;3.40;87.90;;;;;;5042683;28;19928;-65
2024/02/24 05:40:07;;;;;;;;;;;3.40;88.20;;;;;;5046746;28;21017;-64
2024/02/24 05:42:42;;;;;;;;;;;3.40;88.10;;;;;;5043889;28;19924;-64
2024/02/24 05:45:16;;;;;;;;;;;3.40;88.10;;;;;;5041650;28;19936;-64
2024/02/24 05:47:50;;;;;;;;;;;3.40;88.20;;;;;;5044239;28;20012;-64
2024/02/24 05:50:23;;;;;;;;;;;3.50;88.10;;;;;;5040512;28;19931;-64
2024/02/24 05:52:56;;;;;;;;;;;3.50;88.10;;;;;;5044506;28;20438;-64
2024/02/24 05:55:29;;;;;;;;;;;3.40;88.10;;;;;;5042241;28;19964;-64
2024/02/24 05:58:38;;;;;;;;;;;3.50;88.00;;;;;;5038370;28;19951;-65
2024/02/24 06:01:14;;;;;;;;;;;3.40;87.80;;;;;;5039881;28;20373;-65
2024/02/24 06:03:48;;;;;;;;;;;3.40;87.80;;;;;;5038511;28;19937;-65
2024/02/24 06:06:21;;;;;;;;;;;3.40;87.40;;;;;;5044212;28;19954;-64
2024/02/24 06:08:54;;;;;;;;;;;3.40;87.40;;;;;;5049163;28;20441;-65
2024/02/24 06:11:27;;;;;;;;;;;3.40;87.30;;;;;;5065418;28;19939;-64
2024/02/24 06:14:00;;;;;;;;;;;3.40;87.00;;;;;;5056312;28;19924;-64
2024/02/24 06:16:34;;;;;;;;;;;3.30;87.30;;;;;;5055618;28;19931;-64
2024/02/24 06:19:07;;;;;;;;;;;3.30;87.20;;;;;;5054580;28;19925;-64
2024/02/24 06:21:40;;;;;;;;;;;3.20;87.40;;;;;;5050713;28;19932;-64
2024/02/24 06:24:13;;;;;;;;;;;3.10;87.50;;;;;;5048023;28;19933;-64
2024/02/24 06:26:46;;;;;;;;;;;3.10;87.70;;;;;;5056961;28;19932;-64
2024/02/24 06:29:15;;;;;;;;;;;3.20;87.30;;;;;;5049818;28;19924;-65
2024/02/24 06:31:50;;;;;;;;;;;3.10;87.40;;;;;;5064328;28;19931;-65
2024/02/24 06:34:24;;;;;;;;;;;3.20;87.30;;;;;;5044403;28;19932;-65
2024/02/24 13:01:18;;;;;;;;;;;7.80;79.60;;;;;;5034341;28;20334;-57
2024/02/24 13:03:54;;;;;;;;;;;7.90;79.50;;;;;;5048803;28;20430;-57
2024/02/24 13:06:27;;;;;;;;;;;7.90;78.50;;;;;;5046679;28;19925;-58
2024/02/24 13:09:00;;;;;;;;;;;7.90;78.40;;;;;;5047847;28;19925;-63
2024/02/24 13:11:27;;;;;;;;;;;7.90;78.20;;;;;;5046145;28;19933;-57
2024/02/24 13:14:00;;;;;;;;;;;8.00;78.30;;;;;;5045927;28;19929;-61
2024/02/24 13:16:28;;;;;;;;;;;8.10;78.50;;;;;;5045098;28;20435;-57
2024/02/24 13:19:01;;;;;;;;;;;8.10;77.70;;;;;;5047720;28;19936;-58
2024/02/24 13:21:35;;;;;;;;;;;8.10;77.90;;;;;;5048422;28;20357;-57
2024/02/24 13:24:09;;;;;;;;;;;8.10;77.50;;;;;;5046707;28;19968;-58
2024/02/24 13:26:42;;;;;;;;;;;8.30;77.70;;;;;;5048364;28;19924;-57
2024/02/24 13:29:15;;;;;;;;;;;8.30;77.30;;;;;;5046495;28;19929;-58
2024/02/24 13:31:49;;;;;;;;;;;8.50;76.60;;;;;;5045879;28;20351;-57
2024/02/24 13:34:23;;;;;;;;;;;8.60;76.10;;;;;;5048272;28;19924;-58
2024/02/24 13:36:56;;;;;;;;;;;8.60;75.90;;;;;;5051968;28;20317;-57
2024/02/24 13:39:29;;;;;;;;;;;8.70;76.40;;;;;;5055827;28;19970;-57
2024/02/24 13:42:02;;;;;;;;;;;8.70;76.30;;;;;;5055806;28;19925;-58
2024/02/24 13:44:35;;;;;;;;;;;8.70;75.60;;;;;;5059206;28;20007;-58
2024/02/24 13:47:10;;;;;;;;;;;8.60;74.50;;;;;;5066633;28;19931;-64
2024/02/24 13:49:43;;;;;;;;;;;8.70;74.10;;;;;;5057552;28;19952;-64
2024/02/24 13:52:16;;;;;;;;;;;8.70;74.10;;;;;;5066620;28;19935;-65
2024/02/24 13:54:51;;;;;;;;;;;8.70;73.80;;;;;;5061452;28;19928;-63
2024/02/24 13:57:24;;;;;;;;;;;8.60;73.40;;;;;;5045467;28;20386;-63
2024/02/24 13:59:57;;;;;;;;;;;8.60;73.20;;;;;;5062700;28;19933;-62
2024/02/24 14:02:40;;;;;;;;;;;8.60;72.80;;;;;;5053503;28;19929;-63
2024/02/24 14:05:13;;;;;;;;;;;8.60;73.20;;;;;;5055332;28;20227;-63
2024/02/24 14:07:46;;;;;;;;;;;8.60;73.00;;;;;;5058499;28;19940;-63
2024/02/24 14:10:13;;;;;;;;;;;8.60;72.80;;;;;;5057749;28;20034;-63
2024/02/24 14:12:46;;;;;;;;;;;8.60;72.20;;;;;;5056473;28;19929;-62
2024/02/24 14:15:13;;;;;;;;;;;8.60;72.10;;;;;;5055142;28;20324;-63
2024/02/24 14:17:47;;;;;;;;;;;8.60;72.00;;;;;;5066505;28;19986;-63
2024/02/24 14:20:22;;;;;;;;;;;8.50;71.70;;;;;;5058226;28;20246;-63
2024/02/24 14:22:56;;;;;;;;;;;8.50;72.60;;;;;;5058868;28;19929;-63
2024/02/24 14:25:29;;;;;;;;;;;8.40;71.70;;;;;;5054610;28;20323;-63
2024/02/24 14:28:02;;;;;;;;;;;8.40;72.40;;;;;;5046716;28;19936;-63
2024/02/24 14:30:35;;;;;;;;;;;8.50;72.40;;;;;;5055834;28;20019;-63
2024/02/24 14:33:09;;;;;;;;;;;8.60;72.30;;;;;;5046640;28;19928;-63
2024/02/24 14:35:43;;;;;;;;;;;8.60;72.40;;;;;;5046543;28;19931;-64
2024/02/24 14:38:16;;;;;;;;;;;8.60;72.40;;;;;;5047898;28;20429;-63
2024/02/24 14:40:51;;;;;;;;;;;8.60;72.70;;;;;;5046695;28;19971;-64
2024/02/24 14:43:27;;;;;;;;;;;8.60;72.40;;;;;;5046557;28;20364;-63
2024/02/24 14:46:01;;;;;;;;;;;8.60;72.30;;;;;;5046647;28;19928;-64
2024/02/24 14:48:36;;;;;;;;;;;8.60;72.40;;;;;;5043871;28;19951;-63
2024/02/24 14:51:10;;;;;;;;;;;8.60;71.70;;;;;;5045330;28;20024;-63
2024/02/24 14:53:43;;;;;;;;;;;8.60;72.20;;;;;;5045150;28;20268;-63
2024/02/24 14:56:16;;;;;;;;;;;8.60;71.70;;;;;;5045756;28;20003;-63
2024/02/24 14:58:49;;;;;;;;;;;8.60;71.50;;;;;;5043853;28;19925;-63
2024/02/24 15:01:22;;;;;;;;;;;8.60;71.60;;;;;;5044263;28;19928;-63
2024/02/24 15:03:56;;;;;;;;;;;8.60;71.50;;;;;;5045607;28;20007;-63
2024/02/24 15:06:30;;;;;;;;;;;8.60;71.30;;;;;;5046336;28;19931;-64
2024/02/24 15:08:57;;;;;;;;;;;8.60;71.50;;;;;;5045370;28;20020;-63
2024/02/24 15:11:30;;;;;;;;;;;8.60;71.20;;;;;;5044143;28;19929;-63
2024/02/24 15:14:03;;;;;;;;;;;8.60;71.50;;;;;;5044792;28;20380;-64
2024/02/24 15:16:37;;;;;;;;;;;8.50;72.40;;;;;;5061714;28;19997;-64
2024/02/24 15:19:12;;;;;;;;;;;8.40;72.00;;;;;;5044566;28;20794;-63
2024/02/24 15:21:45;;;;;;;;;;;8.40;72.50;;;;;;5045288;28;19928;-63
2024/02/24 15:24:19;;;;;;;;;;;8.40;72.00;;;;;;5042525;28;19924;-64
2024/02/24 15:26:52;;;;;;;;;;;8.40;71.90;;;;;;5044402;28;20069;-63
2024/02/24 15:29:25;;;;;;;;;;;8.40;72.30;;;;;;5042346;28;19968;-63
2024/02/24 15:31:58;;;;;;;;;;;8.40;72.60;;;;;;5042476;28;20299;-63
2024/02/24 15:34:32;;;;;;;;;;;8.40;72.10;;;;;;5041964;28;19931;-65
2024/02/24 15:36:59;;;;;;;;;;;8.40;71.50;;;;;;5045676;28;19929;-63
2024/02/24 15:39:32;;;;;;;;;;;8.50;71.80;;;;;;5053840;28;19935;-63
2024/02/24 15:42:05;;;;;;;;;;;8.50;71.00;;;;;;5039009;28;19932;-63
2024/02/24 15:44:38;;;;;;;;;;;8.50;70.90;;;;;;5046673;28;20383;-64
2024/02/24 15:47:11;;;;;;;;;;;8.50;71.10;;;;;;5062961;28;20356;-64
2024/02/24 15:49:45;;;;;;;;;;;8.50;70.70;;;;;;5062016;28;19951;-63
2024/02/24 15:52:19;;;;;;;;;;;8.40;70.50;;;;;;5063795;28;19951;-64
2024/02/24 15:54:52;;;;;;;;;;;8.40;71.00;;;;;;5058543;28;20346;-63
2024/02/24 15:57:19;;;;;;;;;;;8.40;71.20;;;;;;5061051;28;19925;-64
2024/02/24 15:59:52;;;;;;;;;;;8.40;72.20;;;;;;5045300;28;19932;-64
2024/02/24 16:02:25;;;;;;;;;;;8.40;71.80;;;;;;5048498;28;19971;-64
2024/02/24 16:04:59;;;;;;;;;;;8.30;71.30;;;;;;5066570;28;20406;-64
2024/02/24 16:07:26;;;;;;;;;;;8.30;70.70;;;;;;5045595;28;19928;-64
2024/02/24 16:09:59;;;;;;;;;;;8.20;72.40;;;;;;5043353;28;20196;-64
2024/02/24 16:12:32;;;;;;;;;;;8.20;71.50;;;;;;5056717;28;19936;-65
2024/02/24 16:15:05;;;;;;;;;;;8.10;72.60;;;;;;5066847;28;19932;-60
2024/02/24 16:17:39;;;;;;;;;;;8.10;72.80;;;;;;5069784;28;19977;-60
2024/02/24 16:20:16;;;;;;;;;;;8.00;72.50;;;;;;5058758;28;19924;-59
2024/02/24 16:22:49;;;;;;;;;;;7.90;72.70;;;;;;5048417;28;19925;-59
2024/02/24 16:25:22;;;;;;;;;;;7.90;72.00;;;;;;5047184;28;20559;-58
2024/02/24 16:28:02;;;;;;;;;;;7.90;72.40;;;;;;5048258;28;20412;-60
2024/02/24 16:30:35;;;;;;;;;;;7.80;71.70;;;;;;5049245;28;19929;-59
2024/02/24 16:33:08;;;;;;;;;;;7.80;73.00;;;;;;5049714;28;19935;-57
2024/02/24 16:35:42;;;;;;;;;;;7.80;72.90;;;;;;5049179;28;20371;-57
2024/02/24 16:38:17;;;;;;;;;;;7.70;72.60;;;;;;5048406;28;19925;-59
2024/02/24 16:40:50;;;;;;;;;;;7.80;72.90;;;;;;5055181;28;19930;-59
2024/02/24 16:43:23;;;;;;;;;;;7.70;73.10;;;;;;5050684;28;19929;-59
2024/02/24 16:45:56;;;;;;;;;;;7.60;73.30;;;;;;5068626;28;19935;-58
2024/02/24 16:48:23;;;;;;;;;;;7.60;73.30;;;;;;5057008;28;19928;-58
2024/02/24 16:50:57;;;;;;;;;;;7.50;73.60;;;;;;5049561;28;19928;-59
2024/02/24 16:53:31;;;;;;;;;;;7.50;73.90;;;;;;5057723;28;19932;-58
2024/02/24 16:56:04;;;;;;;;;;;7.50;74.00;;;;;;5060404;28;19925;-59
2024/02/24 16:58:31;;;;;;;;;;;7.50;74.30;;;;;;5054854;28;19939;-59
2024/02/24 17:01:04;;;;;;;;;;;7.40;74.80;;;;;;5056347;28;20337;-57
2024/02/24 17:03:37;;;;;;;;;;;7.40;75.00;;;;;;5067467;28;20020;-58
2024/02/24 17:06:11;;;;;;;;;;;7.40;75.20;;;;;;5068838;28;19948;-59
2024/02/24 17:08:45;;;;;;;;;;;7.30;75.60;;;;;;5064454;28;20292;-59
2024/02/24 17:11:19;;;;;;;;;;;7.30;75.80;;;;;;5064461;28;20273;-58
2024/02/24 17:13:52;;;;;;;;;;;7.30;76.00;;;;;;5061800;28;19951;-57
2024/02/24 17:16:25;;;;;;;;;;;7.30;76.40;;;;;;5049005;28;19964;-59
2024/02/24 17:18:59;;;;;;;;;;;7.20;76.70;;;;;;5059807;28;20761;-57
2024/02/24 17:21:33;;;;;;;;;;;7.20;76.90;;;;;;5063589;28;20935;-58
2024/02/24 17:24:07;;;;;;;;;;;7.20;77.10;;;;;;5062330;28;20264;-58
2024/02/24 17:26:42;;;;;;;;;;;7.20;77.10;;;;;;5060042;28;19928;-63
2024/02/24 17:29:16;;;;;;;;;;;7.10;77.40;;;;;;5057218;28;20012;-65
2024/02/24 17:31:49;;;;;;;;;;;7.10;77.40;;;;;;5047603;28;19956;-63
2024/02/24 17:34:22;;;;;;;;;;;7.00;77.70;;;;;;5066496;28;19928;-64
2024/02/24 17:36:56;;;;;;;;;;;7.00;77.90;;;;;;5069036;28;19936;-64
2024/02/24 17:39:30;;;;;;;;;;;6.90;78.00;;;;;;5064851;28;19928;-65
2024/02/24 17:42:05;;;;;;;;;;;6.90;78.20;;;;;;5066793;28;19928;-65
2024/02/24 17:44:38;;;;;;;;;;;6.80;78.30;;;;;;5068874;28;20019;-65
2024/02/24 17:47:11;;;;;;;;;;;6.80;78.40;;;;;;5065858;28;19932;-66
2024/02/24 17:49:44;;;;;;;;;;;6.80;78.70;;;;;;5054756;28;19931;-66
2024/02/24 17:52:12;;;;;;;;;;;6.80;78.90;;;;;;5047019;28;19932;-64
2024/02/24 17:54:45;;;;;;;;;;;6.80;79.00;;;;;;5067585;28;19951;-65
2024/02/24 17:57:12;;;;;;;;;;;6.80;79.00;;;;;;5057796;28;20024;-66
2024/02/24 17:59:47;;;;;;;;;;;6.70;79.00;;;;;;5054918;28;20027;-64
2024/02/24 18:02:22;;;;;;;;;;;6.70;79.20;;;;;;5047065;28;19925;-64
2024/02/24 18:04:55;;;;;;;;;;;6.70;79.30;;;;;;5062296;28;19924;-64
2024/02/24 18:07:30;;;;;;;;;;;6.60;79.60;;;;;;5066017;28;19924;-64
2024/02/24 18:10:03;;;;;;;;;;;6.60;79.50;;;;;;5066017;28;19978;-64
2024/02/24 18:12:36;;;;;;;;;;;6.60;79.30;;;;;;5067293;28;19936;-63
2024/02/24 18:15:09;;;;;;;;;;;6.60;79.60;;;;;;5067110;28;19935;-64
2024/02/24 18:17:43;;;;;;;;;;;6.60;79.50;;;;;;5066597;28;19924;-63
2024/02/24 18:20:10;;;;;;;;;;;6.60;79.50;;;;;;5067868;28;19928;-63
2024/02/24 18:22:45;;;;;;;;;;;6.60;79.90;;;;;;5065415;28;20015;-65
2024/02/24 18:25:12;;;;;;;;;;;6.50;80.00;;;;;;5064892;28;20363;-63
2024/02/24 18:27:46;;;;;;;;;;;6.60;80.00;;;;;;5067371;28;19932;-63
2024/02/24 18:30:13;;;;;;;;;;;6.50;80.20;;;;;;5066301;28;19924;-65
2024/02/24 18:32:46;;;;;;;;;;;6.50;80.30;;;;;;5065402;28;19951;-64
2024/02/24 18:35:19;;;;;;;;;;;6.60;80.60;;;;;;5065642;28;19931;-59
2024/02/24 18:37:54;;;;;;;;;;;6.60;80.60;;;;;;5065882;28;19933;-58
2024/02/24 18:40:28;;;;;;;;;;;6.60;80.70;;;;;;5064759;28;20034;-58
2024/02/24 18:43:01;;;;;;;;;;;6.50;80.80;;;;;;5066896;28;20347;-58
2024/02/24 18:45:34;;;;;;;;;;;6.60;81.00;;;;;;5065892;28;19954;-60
2024/02/24 18:48:07;;;;;;;;;;;6.60;81.50;;;;;;5065294;28;19928;-58
2024/02/24 18:50:41;;;;;;;;;;;6.60;81.90;;;;;;5063578;28;19955;-57
2024/02/24 18:53:15;;;;;;;;;;;6.50;82.60;;;;;;5051056;28;19928;-59
2024/02/24 18:55:49;;;;;;;;;;;6.50;82.90;;;;;;5046071;28;20030;-59
2024/02/24 18:58:22;;;;;;;;;;;6.50;83.00;;;;;;5062680;28;19989;-59
2024/02/24 19:00:57;;;;;;;;;;;6.50;83.10;;;;;;5048713;28;19925;-59
2024/02/24 19:03:31;;;;;;;;;;;6.40;83.20;;;;;;5049324;28;19936;-59
2024/02/24 19:06:04;;;;;;;;;;;6.40;83.30;;;;;;5059941;28;19951;-59
2024/02/24 19:08:39;;;;;;;;;;;6.40;83.20;;;;;;5065081;28;19925;-59
2024/02/24 19:11:13;;;;;;;;;;;6.40;83.30;;;;;;5066267;28;19930;-59
2024/02/24 19:13:46;;;;;;;;;;;6.30;83.20;;;;;;5052166;28;19937;-59
2024/02/24 19:16:19;;;;;;;;;;;6.30;83.20;;;;;;5064912;28;19956;-57
2024/02/24 19:18:52;;;;;;;;;;;6.20;83.30;;;;;;5060680;28;19931;-59
2024/02/24 19:21:27;;;;;;;;;;;6.10;83.30;;;;;;5062790;28;20403;-58
2024/02/24 19:24:01;;;;;;;;;;;6.10;83.50;;;;;;5066905;28;19928;-58
2024/02/24 19:26:36;;;;;;;;;;;6.00;83.40;;;;;;5064538;28;19924;-58
2024/02/24 19:29:10;;;;;;;;;;;5.90;83.50;;;;;;5057626;28;20748;-58
2024/02/24 19:31:43;;;;;;;;;;;5.90;83.60;;;;;;5065402;28;19932;-58
2024/02/24 19:34:19;;;;;;;;;;;5.80;83.70;;;;;;5063488;28;19928;-59
2024/02/24 19:36:52;;;;;;;;;;;5.80;83.80;;;;;;5062001;28;19933;-59
2024/02/24 19:39:26;;;;;;;;;;;5.90;84.00;;;;;;5059793;28;19928;-58
2024/02/24 19:42:00;;;;;;;;;;;5.90;84.10;;;;;;5063626;28;20004;-59
2024/02/24 19:44:34;;;;;;;;;;;5.90;84.30;;;;;;5053274;28;19924;-58
2024/02/24 19:47:09;;;;;;;;;;;5.70;84.50;;;;;;5064879;28;19933;-58
2024/02/24 19:49:43;;;;;;;;;;;5.70;84.50;;;;;;5061192;28;19974;-59
2024/02/24 19:52:16;;;;;;;;;;;5.70;84.60;;;;;;5067905;28;20026;-59
2024/02/24 19:54:50;;;;;;;;;;;5.70;84.70;;;;;;5060837;28;19929;-59
2024/02/24 19:57:24;;;;;;;;;;;5.80;84.70;;;;;;5060525;28;19932;-58
2024/02/24 19:59:57;;;;;;;;;;;5.80;84.60;;;;;;5069079;28;19985;-60
2024/02/24 20:02:37;;;;;;;;;;;5.80;84.80;;;;;;5067582;28;20375;-63
2024/02/24 20:05:10;;;;;;;;;;;5.80;85.20;;;;;;5050377;28;19990;-58
2024/02/24 20:07:44;;;;;;;;;;;5.80;85.40;;;;;;5069814;28;19928;-60
2024/02/24 20:10:12;;;;;;;;;;;5.80;85.50;;;;;;5069415;28;19967;-59
2024/02/24 20:12:45;;;;;;;;;;;5.70;85.60;;;;;;5049481;28;19972;-59
2024/02/24 20:15:18;;;;;;;;;;;5.70;85.50;;;;;;5048494;28;19925;-59
2024/02/24 20:17:51;;;;;;;;;;;5.60;85.50;;;;;;5063777;28;20551;-59
2024/02/24 20:20:18;;;;;;;;;;;5.60;85.50;;;;;;5056942;28;19929;-59
2024/02/24 20:22:51;;;;;;;;;;;5.60;85.40;;;;;;5048763;28;19924;-59
2024/02/24 20:25:25;;;;;;;;;;;5.50;85.60;;;;;;5047360;28;20016;-59
2024/02/24 20:28:02;;;;;;;;;;;5.50;85.80;;;;;;5048234;28;19941;-59
2024/02/24 20:30:36;;;;;;;;;;;5.50;85.90;;;;;;5048667;28;19971;-59
2024/02/24 20:33:09;;;;;;;;;;;5.50;86.00;;;;;;5050229;28;19924;-59
2024/02/24 20:35:42;;;;;;;;;;;5.50;86.00;;;;;;5048566;28;19925;-59
2024/02/24 20:38:15;;;;;;;;;;;5.50;86.00;;;;;;5048922;28;19925;-59
2024/02/24 20:40:52;;;;;;;;;;;5.50;85.70;;;;;;5049238;28;20486;-58
2024/02/24 20:43:25;;;;;;;;;;;5.40;85.60;;;;;;5046890;28;20284;-58
2024/02/24 20:45:58;;;;;;;;;;;5.40;85.50;;;;;;5050090;28;20023;-59
2024/02/24 20:48:25;;;;;;;;;;;5.30;85.60;;;;;;5046019;28;20083;-58
2024/02/24 20:50:59;;;;;;;;;;;5.30;85.70;;;;;;5048601;28;20375;-59
2024/02/24 20:53:32;;;;;;;;;;;5.30;85.70;;;;;;5047286;28;20391;-59
2024/02/24 20:56:12;;;;;;;;;;;5.40;85.50;;;;;;5047945;28;20380;-63
2024/02/24 20:58:45;;;;;;;;;;;5.40;85.50;;;;;;5046229;28;19925;-62
2024/02/24 21:01:18;;;;;;;;;;;5.40;85.50;;;;;;5046450;28;20362;-64
2024/02/24 21:03:51;;;;;;;;;;;5.40;85.70;;;;;;5047074;28;19929;-64
2024/02/24 21:06:24;;;;;;;;;;;5.30;85.80;;;;;;5046178;28;20244;-63
2024/02/24 21:08:57;;;;;;;;;;;5.30;86.00;;;;;;5048883;28;19928;-64
2024/02/24 21:11:31;;;;;;;;;;;5.30;86.30;;;;;;5055415;28;19931;-63
2024/02/24 21:14:06;;;;;;;;;;;5.30;86.30;;;;;;5045381;28;20296;-64
2024/02/24 21:16:39;;;;;;;;;;;5.30;86.40;;;;;;5061158;28;20359;-64
2024/02/24 21:19:12;;;;;;;;;;;5.30;86.30;;;;;;5058656;28;20245;-64
2024/02/24 21:21:45;;;;;;;;;;;5.40;86.20;;;;;;5049401;28;20368;-64
2024/02/24 21:24:20;;;;;;;;;;;5.40;86.10;;;;;;5055032;28;19924;-64
2024/02/24 21:26:54;;;;;;;;;;;5.40;86.20;;;;;;5053082;28;20542;-64
2024/02/24 21:29:28;;;;;;;;;;;5.40;86.30;;;;;;5067635;28;20046;-64
2024/02/24 21:31:55;;;;;;;;;;;5.50;86.20;;;;;;5068209;28;20276;-64
2024/02/24 21:34:30;;;;;;;;;;;5.40;86.40;;;;;;5064403;28;19928;-64
2024/02/24 21:37:03;;;;;;;;;;;5.40;86.40;;;;;;5063516;28;19925;-64
2024/02/24 21:39:38;;;;;;;;;;;5.40;86.40;;;;;;5059643;28;19924;-64
2024/02/24 21:42:13;;;;;;;;;;;5.40;86.40;;;;;;5056927;28;19928;-64